Time,TemperatureF,DewpointF,PressureIn,WindDirection,WindDirectionDegrees,WindSpeedMPH,WindSpeedGustMPH,Humidity,HourlyPrecipIn,Conditions,Clouds,dailyrainin,SoftwareType,DateUTC
2013-05-18 13:33:00,66.9,51.6,30.10,SE,135,0.0,-999.0,58,-99.99,,,0.00,Acu-Link.com,2013-05-18 17:33:00,
2013-05-18 13:48:00,67.3,52.5,30.10,SSW,202,0.0,-999.0,59,-99.99,,,0.00,Acu-Link.com,2013-05-18 17:48:00,
2013-05-18 14:03:00,67.3,52.5,30.09,East,90,0.0,-999.0,59,-99.99,,,0.00,Acu-Link.com,2013-05-18 18:03:00,
2013-05-18 14:19:00,67.1,52.3,30.09,ESE,112,0.0,-999.0,59,-99.99,,,0.00,Acu-Link.com,2013-05-18 18:19:00,
2013-05-18 14:34:00,67.8,52.9,30.10,West,270,0.0,-999.0,59,-99.99,,,0.00,Acu-Link.com,2013-05-18 18:34:00,
2013-05-18 14:49:00,67.5,53.1,30.10,ESE,112,0.0,-999.0,60,-99.99,,,0.00,Acu-Link.com,2013-05-18 18:49:00,
2013-05-18 15:04:00,67.1,53.2,30.09,South,180,0.0,-999.0,61,-99.99,,,0.00,Acu-Link.com,2013-05-18 19:04:00,
2013-05-18 15:20:00,67.5,53.6,30.09,North,0,0.0,-999.0,61,-99.99,,,0.00,Acu-Link.com,2013-05-18 19:20:00,
2013-05-18 15:35:00,67.3,53.8,30.08,West,270,0.0,-999.0,62,-99.99,,,0.00,Acu-Link.com,2013-05-18 19:35:00,
2013-05-18 15:50:00,67.3,53.4,30.08,ESE,112,0.0,-999.0,61,-99.99,,,0.00,Acu-Link.com,2013-05-18 19:50:00,
2013-05-18 16:05:00,67.6,54.5,30.08,ENE,67,1.7,-999.0,63,-99.99,,,0.00,Acu-Link.com,2013-05-18 20:05:00,
2013-05-18 16:21:00,67.1,52.7,30.09,North,0,0.0,-999.0,60,-99.99,,,0.00,Acu-Link.com,2013-05-18 20:21:00,
2013-05-18 16:36:00,67.1,53.6,30.08,ESE,112,0.0,-999.0,62,-99.99,,,0.00,Acu-Link.com,2013-05-18 20:36:00,
2013-05-18 16:51:00,67.1,52.7,30.08,ENE,67,0.0,-999.0,60,-99.99,,,0.00,Acu-Link.com,2013-05-18 20:51:00,
2013-05-18 17:06:00,66.9,53.9,30.08,ESE,112,0.0,-999.0,63,-99.99,,,0.00,Acu-Link.com,2013-05-18 21:06:00,
2013-05-18 17:22:00,66.7,54.1,30.07,West,270,0.0,-999.0,64,-99.99,,,0.00,Acu-Link.com,2013-05-18 21:22:00,
2013-05-18 17:39:00,66.4,53.8,30.08,ESE,112,0.0,-999.0,64,-99.99,,,0.00,Acu-Link.com,2013-05-18 21:39:00,
2013-05-18 17:54:00,65.8,53.7,30.08,East,90,0.0,-999.0,65,-99.99,,,0.00,Acu-Link.com,2013-05-18 21:54:00,
2013-05-18 18:09:00,65.5,53.4,30.07,SSE,157,0.0,-999.0,65,-99.99,,,0.00,Acu-Link.com,2013-05-18 22:09:00,
2013-05-18 18:25:00,65.3,54.1,30.08,WSW,247,0.0,-999.0,67,-99.99,,,0.00,Acu-Link.com,2013-05-18 22:25:00,
2013-05-18 18:40:00,65.1,54.3,30.08,SSW,202,0.0,-999.0,68,-99.99,,,0.00,Acu-Link.com,2013-05-18 22:40:00,
2013-05-18 18:55:00,65.1,53.9,30.08,NE,45,0.0,-999.0,67,-99.99,,,0.00,Acu-Link.com,2013-05-18 22:55:00,
2013-05-18 19:11:00,64.9,53.7,30.08,North,0,0.0,-999.0,67,-99.99,,,0.00,Acu-Link.com,2013-05-18 23:11:00,
2013-05-18 19:26:00,64.6,52.6,30.08,NNE,22,0.0,-999.0,65,-99.99,,,0.00,Acu-Link.com,2013-05-18 23:26:00,
2013-05-18 19:43:00,64.4,52.4,30.09,East,90,0.0,-999.0,65,-99.99,,,0.00,Acu-Link.com,2013-05-18 23:43:00,
2013-05-18 19:58:00,64.2,52.2,30.09,ENE,67,0.0,-999.0,65,-99.99,,,0.00,Acu-Link.com,2013-05-18 23:58:00,
2013-05-18 20:13:00,64.0,52.4,30.09,NNW,337,0.0,-999.0,66,-99.99,,,0.00,Acu-Link.com,2013-05-19 00:13:00,
2013-05-18 20:28:00,63.7,52.5,30.09,East,90,0.0,-999.0,67,-99.99,,,0.00,Acu-Link.com,2013-05-19 00:28:00,
2013-05-18 20:43:00,63.3,52.2,30.10,North,0,0.0,-999.0,67,-99.99,,,0.00,Acu-Link.com,2013-05-19 00:43:00,
2013-05-18 20:59:00,63.0,52.3,30.09,East,90,1.7,-999.0,68,-99.99,,,0.00,Acu-Link.com,2013-05-19 00:59:00,
2013-05-18 21:14:00,62.6,51.9,30.10,ESE,112,1.7,-999.0,68,-99.99,,,0.00,Acu-Link.com,2013-05-19 01:14:00,
2013-05-18 21:30:00,62.4,51.7,30.10,SSE,157,1.1,-999.0,68,-99.99,,,0.00,Acu-Link.com,2013-05-19 01:30:00,
2013-05-18 21:45:00,62.1,51.8,30.11,South,180,1.1,-999.0,69,-99.99,,,0.00,Acu-Link.com,2013-05-19 01:45:00,
2013-05-18 22:00:00,62.1,51.8,30.11,ENE,67,0.0,-999.0,69,-99.99,,,0.00,Acu-Link.com,2013-05-19 02:00:00,
2013-05-18 22:15:00,61.7,51.8,30.11,ENE,67,1.7,-999.0,70,-99.99,,,0.00,Acu-Link.com,2013-05-19 02:15:00,
2013-05-18 22:31:00,61.3,51.4,30.11,South,180,0.0,-999.0,70,-99.99,,,0.00,Acu-Link.com,2013-05-19 02:31:00,
2013-05-18 22:46:00,61.2,52.1,30.12,ESE,112,0.0,-999.0,72,-99.99,,,0.00,Acu-Link.com,2013-05-19 02:46:00,
2013-05-18 23:01:00,60.8,51.7,30.11,SW,225,0.0,-999.0,72,-99.99,,,0.00,Acu-Link.com,2013-05-19 03:01:00,
2013-05-18 23:16:00,60.4,52.1,30.11,SSE,157,0.0,-999.0,74,-99.99,,,0.00,Acu-Link.com,2013-05-19 03:16:00,
2013-05-18 23:31:00,60.3,52.7,30.11,ESE,112,2.2,-999.0,76,-99.99,,,0.00,Acu-Link.com,2013-05-19 03:31:00,
2013-05-18 23:47:00,59.9,52.7,30.11,East,90,2.2,-999.0,77,-99.99,,,0.00,Acu-Link.com,2013-05-19 03:47:00,